createdAt,value
2018-03-21T00:00:15.041Z,23.03
2018-03-21T00:02:48.456Z,20.70
2018-03-21T00:05:20.974Z,17.27
2018-03-21T00:07:53.304Z,20.30
2018-03-21T00:10:25.676Z,17.83
2018-03-21T00:12:58.157Z,19.53
2018-03-21T00:15:30.551Z,18.43
2018-03-21T00:18:03.831Z,16.90
2018-03-21T00:20:36.399Z,17.90
2018-03-21T00:23:09.690Z,18.73
2018-03-21T00:25:42.122Z,18.30
2018-03-21T00:28:16.126Z,23.30
2018-03-21T00:30:48.934Z,20.00
2018-03-21T00:33:21.327Z,20.50
2018-03-21T00:35:53.835Z,19.57
2018-03-21T00:38:26.943Z,17.73
2018-03-21T00:40:59.650Z,17.67
2018-03-21T00:43:32.023Z,19.70
2018-03-21T00:46:05.233Z,16.50
2018-03-21T00:48:37.684Z,21.07
2018-03-21T00:51:11.058Z,19.00
2018-03-21T00:53:43.457Z,18.27
2018-03-21T00:56:16.649Z,23.10
2018-03-21T00:58:49.307Z,23.80
2018-03-21T01:01:21.775Z,20.10
2018-03-21T01:03:55.795Z,19.97
2018-03-21T01:06:29.226Z,19.93
2018-03-21T01:09:01.883Z,20.10
2018-03-21T01:11:34.376Z,19.50
2018-03-21T01:14:06.831Z,17.37
2018-03-21T01:16:39.221Z,22.27
2018-03-21T01:19:11.764Z,20.43
2018-03-21T01:21:44.946Z,23.60
2018-03-21T01:24:17.546Z,29.90
2018-03-21T01:26:50.674Z,21.53
2018-03-21T01:29:23.338Z,21.93
2018-03-21T01:31:56.541Z,19.40
2018-03-21T01:34:29.265Z,21.73
2018-03-21T01:37:01.729Z,21.50
2018-03-21T01:39:34.022Z,23.27
2018-03-21T01:42:06.354Z,23.70
2018-03-21T01:44:40.339Z,18.77
2018-03-21T01:47:13.850Z,18.23
2018-03-21T01:49:47.103Z,20.70
2018-03-21T01:52:19.670Z,23.03
2018-03-21T01:54:51.978Z,19.43
2018-03-21T01:57:24.400Z,21.23
2018-03-21T01:59:58.394Z,22.90
2018-03-21T02:02:31.694Z,19.60
2018-03-21T02:05:04.307Z,19.80
2018-03-21T02:07:36.660Z,20.50
2018-03-21T02:10:09.999Z,21.03
2018-03-21T02:12:42.346Z,18.47
2018-03-21T02:15:14.801Z,21.90
2018-03-21T02:17:47.286Z,26.20
2018-03-21T02:20:19.752Z,22.50
2018-03-21T02:22:54.246Z,25.37
2018-03-21T02:25:27.498Z,24.30
2018-03-21T02:28:00.899Z,24.00
2018-03-21T02:30:33.431Z,23.50
2018-03-21T02:33:05.886Z,25.37
2018-03-21T02:35:38.299Z,24.80
2018-03-21T02:38:10.778Z,24.27
2018-03-21T02:40:44.011Z,26.40
2018-03-21T02:43:16.464Z,21.43
2018-03-21T02:45:48.849Z,19.00
2018-03-21T02:48:21.173Z,18.40
2018-03-21T02:50:53.735Z,25.40
2018-03-21T02:53:26.068Z,17.50
2018-03-21T02:55:59.258Z,21.50
2018-03-21T02:58:32.123Z,24.80
2018-03-21T03:01:06.167Z,18.20
2018-03-21T03:03:40.335Z,22.43
2018-03-21T03:06:13.136Z,22.40
2018-03-21T03:08:46.424Z,24.40
2018-03-21T03:11:19.737Z,24.70
2018-03-21T03:13:52.193Z,18.40
2018-03-21T03:16:26.262Z,18.80
2018-03-21T03:18:59.095Z,20.90
2018-03-21T03:21:32.449Z,18.40
2018-03-21T03:24:05.762Z,25.40
2018-03-21T03:26:39.175Z,20.07
2018-03-21T03:29:13.031Z,18.77
2018-03-21T03:31:45.949Z,19.93
2018-03-21T03:34:19.164Z,21.13
2018-03-21T03:36:51.817Z,15.37
2018-03-21T03:39:24.473Z,18.60
2018-03-21T03:41:57.891Z,16.40
2018-03-21T03:44:30.779Z,22.03
2018-03-21T03:47:04.212Z,17.23
2018-03-21T03:49:37.515Z,18.70
2018-03-21T03:52:11.597Z,17.03
2018-03-21T03:54:44.273Z,21.90
2018-03-21T03:57:16.681Z,19.73
2018-03-21T03:59:49.259Z,19.83
2018-03-21T04:02:21.651Z,18.50
2018-03-21T04:04:54.042Z,15.50
2018-03-21T04:07:26.473Z,20.57
2018-03-21T04:09:59.005Z,16.60
2018-03-21T04:12:31.475Z,16.73
2018-03-21T04:15:05.644Z,20.80
2018-03-21T04:17:38.106Z,15.50
2018-03-21T04:20:10.690Z,19.77
2018-03-21T04:22:43.103Z,16.77
2018-03-21T04:25:15.628Z,19.07
2018-03-21T04:27:48.975Z,15.60
2018-03-21T04:30:21.358Z,19.20
2018-03-21T04:32:54.698Z,17.50
2018-03-21T04:35:27.242Z,15.60
2018-03-21T04:38:00.480Z,14.00
2018-03-21T04:40:33.676Z,14.33
2018-03-21T04:43:06.309Z,18.10
2018-03-21T04:45:39.598Z,18.30
2018-03-21T04:48:11.938Z,18.70
2018-03-21T04:50:44.363Z,16.03
2018-03-21T04:53:24.710Z,15.83
2018-03-21T04:55:58.774Z,17.20
2018-03-21T04:58:31.395Z,14.87
2018-03-21T05:01:03.786Z,14.33
2018-03-21T05:03:37.813Z,13.80
2018-03-21T05:06:10.375Z,14.47
2018-03-21T05:08:43.689Z,15.37
2018-03-21T05:11:16.292Z,15.83
2018-03-21T05:13:48.758Z,19.63
2018-03-21T05:16:21.992Z,15.13
2018-03-21T05:18:54.567Z,14.50
2018-03-21T05:21:27.738Z,16.77
2018-03-21T05:24:00.216Z,13.27
2018-03-21T05:26:33.552Z,14.40
2018-03-21T05:29:06.141Z,12.80
2018-03-21T05:31:38.673Z,11.77
2018-03-21T05:34:12.229Z,14.07
2018-03-21T05:36:45.673Z,14.93
2018-03-21T05:39:18.794Z,12.23
2018-03-21T05:41:51.542Z,13.93
2018-03-21T05:44:24.846Z,12.17
2018-03-21T05:46:58.060Z,14.03
2018-03-21T05:49:30.703Z,9.70
2018-03-21T05:52:03.141Z,14.97
2018-03-21T05:54:35.485Z,12.47
2018-03-21T05:57:07.904Z,14.77
2018-03-21T05:59:40.283Z,12.67
2018-03-21T06:02:12.663Z,12.20
2018-03-21T06:04:46.556Z,12.67
2018-03-21T06:07:19.378Z,11.90
2018-03-21T06:09:51.900Z,11.80
2018-03-21T06:12:25.353Z,12.13
2018-03-21T06:14:58.664Z,11.30
2018-03-21T06:20:10.331Z,12.40
2018-03-21T06:22:43.668Z,9.97
2018-03-21T06:25:16.063Z,9.03
2018-03-21T06:27:48.515Z,9.90
2018-03-21T06:30:20.841Z,10.27
2018-03-21T06:32:53.218Z,8.73
2018-03-21T06:35:26.371Z,9.33
2018-03-21T06:37:59.155Z,9.20
2018-03-21T06:40:31.583Z,12.13
2018-03-21T06:43:03.916Z,10.73
2018-03-21T06:45:37.180Z,8.73
2018-03-21T06:48:10.723Z,10.27
2018-03-21T06:50:43.915Z,9.37
2018-03-21T06:53:16.336Z,8.80
2018-03-21T06:55:48.814Z,7.93
2018-03-21T06:58:21.243Z,8.60
2018-03-21T07:00:54.725Z,8.50
2018-03-21T07:03:28.005Z,7.97
2018-03-21T07:06:00.412Z,8.20
2018-03-21T07:08:33.731Z,8.57
2018-03-21T07:11:06.189Z,7.10
2018-03-21T07:13:57.361Z,7.70
2018-03-21T07:16:46.214Z,6.27
2018-03-21T07:19:20.036Z,7.67
2018-03-21T07:21:52.498Z,6.83
2018-03-21T07:24:24.884Z,9.10
2018-03-21T07:26:57.266Z,7.50
2018-03-21T07:29:29.754Z,6.47
2018-03-21T07:32:03.154Z,7.70
2018-03-21T07:34:35.627Z,6.90
2018-03-21T07:37:08.120Z,7.30
2018-03-21T07:39:40.515Z,6.17
2018-03-21T07:42:13.049Z,7.10
2018-03-21T07:44:46.502Z,6.87
2018-03-21T07:47:19.815Z,7.90
2018-03-21T07:49:52.282Z,5.87
2018-03-21T07:52:24.717Z,6.47
2018-03-21T07:54:57.180Z,6.60
2018-03-21T07:57:29.635Z,5.93
2018-03-21T08:00:03.229Z,6.90
2018-03-21T08:02:37.104Z,6.60
2018-03-21T08:05:10.144Z,6.93
2018-03-21T08:07:43.981Z,6.07
2018-03-21T08:10:17.426Z,5.73
2018-03-21T08:12:49.941Z,4.93
2018-03-21T08:15:23.314Z,5.97
2018-03-21T08:17:55.835Z,5.70
2018-03-21T08:20:28.549Z,4.63
2018-03-21T08:23:01.983Z,6.20
2018-03-21T08:25:34.591Z,6.60
2018-03-21T08:28:07.244Z,6.50
2018-03-21T08:30:39.968Z,7.00
2018-03-21T08:33:13.128Z,7.90
2018-03-21T08:35:45.730Z,5.70
2018-03-21T08:38:19.005Z,6.70
2018-03-21T08:40:51.532Z,6.70
2018-03-21T08:43:23.891Z,9.60
2018-03-21T08:45:56.483Z,5.27
2018-03-21T08:48:29.063Z,7.67
2018-03-21T08:51:02.415Z,7.27
2018-03-21T08:53:35.595Z,7.70
2018-03-21T08:56:08.239Z,6.27
2018-03-21T08:58:40.691Z,6.90
2018-03-21T09:01:13.939Z,6.70
2018-03-21T09:03:46.609Z,6.10
2018-03-21T09:06:19.955Z,6.43
2018-03-21T09:08:52.396Z,7.10
2018-03-21T09:11:24.884Z,7.57
2018-03-21T09:13:58.330Z,6.10
2018-03-21T09:16:30.823Z,7.50
2018-03-21T09:19:03.269Z,7.77
2018-03-21T09:21:35.617Z,6.93
2018-03-21T09:24:09.603Z,7.50
2018-03-21T09:26:42.150Z,8.00
2018-03-21T09:29:15.461Z,8.47
2018-03-21T09:31:47.932Z,7.07
2018-03-21T09:34:20.400Z,8.50
2018-03-21T09:36:52.913Z,8.20
2018-03-21T09:39:26.320Z,7.70
2018-03-21T09:41:59.704Z,9.03
2018-03-21T09:44:32.894Z,7.93
2018-03-21T09:47:05.770Z,9.80
2018-03-21T09:49:39.110Z,8.30
2018-03-21T09:52:11.641Z,8.67
2018-03-21T09:54:44.723Z,8.00
2018-03-21T09:57:17.545Z,9.10
2018-03-21T10:02:32.287Z,7.40
2018-03-21T10:05:05.721Z,8.77
2018-03-21T10:07:38.425Z,9.43
2018-03-21T10:10:11.549Z,9.10
2018-03-21T10:12:44.900Z,8.37
2018-03-21T10:15:24.302Z,8.70
2018-03-21T10:17:56.892Z,8.03
2018-03-21T10:20:30.883Z,8.90
2018-03-21T10:23:03.652Z,9.33
2018-03-21T10:25:36.081Z,7.97
2018-03-21T10:28:08.446Z,10.00
2018-03-21T10:30:41.029Z,9.40
2018-03-21T10:33:13.493Z,9.53
2018-03-21T10:35:46.837Z,8.87
2018-03-21T10:38:19.389Z,9.77
2018-03-21T10:40:51.744Z,8.83
2018-03-21T10:43:24.213Z,9.10
2018-03-21T10:45:56.681Z,9.98
2018-03-21T10:48:30.772Z,10.33
2018-03-21T10:51:03.321Z,9.97
2018-03-21T10:53:35.689Z,9.90
2018-03-21T10:56:09.041Z,9.17
2018-03-21T10:58:41.411Z,9.67
2018-03-21T11:01:19.999Z,10.40
2018-03-21T11:03:55.281Z,10.50
2018-03-21T11:06:27.997Z,9.30
2018-03-21T11:09:00.457Z,11.10
2018-03-21T11:11:33.568Z,9.10
2018-03-21T11:14:06.477Z,9.40
2018-03-21T11:16:39.664Z,10.40
2018-03-21T11:19:13.131Z,9.63
2018-03-21T11:21:45.556Z,11.30
2018-03-21T11:24:18.135Z,11.80
2018-03-21T11:26:51.407Z,11.00
2018-03-21T11:29:24.800Z,11.07
2018-03-21T11:31:57.489Z,10.47
2018-03-21T11:34:30.678Z,8.80
2018-03-21T11:37:03.936Z,8.57
2018-03-21T11:39:36.743Z,7.10
2018-03-21T11:42:10.103Z,7.60
2018-03-21T11:44:43.310Z,8.00
2018-03-21T11:47:16.567Z,7.63
2018-03-21T11:49:50.745Z,8.83
2018-03-21T11:52:23.424Z,6.93
2018-03-21T11:54:55.969Z,9.87
2018-03-21T11:57:29.265Z,8.67
2018-03-21T12:00:02.542Z,6.97
2018-03-21T12:02:36.564Z,6.90
2018-03-21T12:05:10.201Z,7.63
2018-03-21T12:07:42.607Z,8.23
2018-03-21T12:10:16.820Z,7.47
2018-03-21T12:12:49.302Z,8.50
2018-03-21T12:15:21.791Z,7.83
2018-03-21T12:17:54.303Z,7.97
2018-03-21T12:20:26.719Z,7.53
2018-03-21T12:23:00.102Z,10.13
2018-03-21T12:25:32.737Z,10.37
2018-03-21T12:28:06.914Z,8.97
2018-03-21T12:30:39.538Z,9.03
2018-03-21T12:33:11.994Z,6.27
2018-03-21T12:35:45.333Z,5.63
2018-03-21T12:38:17.824Z,5.33
2018-03-21T12:40:50.321Z,4.73
2018-03-21T12:43:23.413Z,5.30
2018-03-21T12:46:03.165Z,4.87
2018-03-21T12:48:35.668Z,6.00
2018-03-21T12:51:08.139Z,4.77
2018-03-21T12:53:41.535Z,6.03
2018-03-21T12:56:14.832Z,5.00
2018-03-21T12:58:47.333Z,5.30
2018-03-21T13:01:20.563Z,7.27
2018-03-21T13:03:53.217Z,7.20
2018-03-21T13:06:27.331Z,7.53
2018-03-21T13:09:00.040Z,8.07
2018-03-21T13:11:33.402Z,7.20
2018-03-21T13:14:06.254Z,7.50
2018-03-21T13:16:38.607Z,8.57
2018-03-21T13:19:11.800Z,7.50
2018-03-21T13:21:44.411Z,7.47
2018-03-21T13:24:17.638Z,7.10
2018-03-21T13:26:51.097Z,6.60
2018-03-21T13:29:23.724Z,6.00
2018-03-21T13:31:56.339Z,7.40
2018-03-21T13:34:29.596Z,6.17
2018-03-21T13:37:02.373Z,6.00
2018-03-21T13:39:36.454Z,5.23
2018-03-21T13:42:09.106Z,7.90
2018-03-21T13:44:43.138Z,7.47
2018-03-21T13:47:15.790Z,7.20
2018-03-21T13:49:49.038Z,7.17
2018-03-21T13:52:21.487Z,5.70
2018-03-21T13:54:54.619Z,6.90
2018-03-21T13:57:27.094Z,6.57
2018-03-21T14:00:01.120Z,5.27
2018-03-21T14:02:33.789Z,7.77
2018-03-21T14:05:06.213Z,5.70
2018-03-21T14:07:38.763Z,6.97
2018-03-21T14:10:12.122Z,7.43
2018-03-21T14:12:45.243Z,6.30
2018-03-21T14:15:18.609Z,6.50
2018-03-21T14:17:51.264Z,6.43
2018-03-21T14:20:24.651Z,5.80
2018-03-21T14:22:57.171Z,7.00
2018-03-21T14:25:29.950Z,4.93
2018-03-21T14:28:02.396Z,5.97
2018-03-21T14:30:34.842Z,6.57
2018-03-21T14:33:08.218Z,4.60
2018-03-21T14:35:40.628Z,5.40
2018-03-21T14:38:13.984Z,4.57
2018-03-21T14:40:46.687Z,5.97
2018-03-21T14:43:20.017Z,5.70
2018-03-21T14:45:52.441Z,5.70
2018-03-21T14:48:25.223Z,5.77
2018-03-21T14:50:59.200Z,5.67
2018-03-21T14:53:32.723Z,5.67
2018-03-21T14:56:05.207Z,5.23
2018-03-21T14:58:38.507Z,5.60
2018-03-21T15:01:11.880Z,4.80
2018-03-21T15:03:45.945Z,5.07
2018-03-21T15:06:19.252Z,6.20
2018-03-21T15:08:52.893Z,5.30
2018-03-21T15:11:25.355Z,6.80
2018-03-21T15:13:57.808Z,8.50
2018-03-21T15:16:30.657Z,6.50
2018-03-21T15:19:03.978Z,6.43
2018-03-21T15:21:36.406Z,7.77
2018-03-21T15:24:08.829Z,6.40
2018-03-21T15:26:41.342Z,5.20
2018-03-21T15:29:13.784Z,4.47
2018-03-21T15:31:48.003Z,4.87
2018-03-21T15:34:20.603Z,6.80
2018-03-21T15:36:53.786Z,5.53
2018-03-21T15:39:27.317Z,4.60
2018-03-21T15:42:00.048Z,5.53
2018-03-21T15:44:32.555Z,4.80
2018-03-21T15:47:07.461Z,6.13
2018-03-21T15:49:40.258Z,5.00
2018-03-21T15:52:18.518Z,5.10
2018-03-21T15:54:50.968Z,5.43
2018-03-21T15:57:24.060Z,5.07
2018-03-21T15:59:57.509Z,4.23
2018-03-21T16:02:30.094Z,4.60
2018-03-21T16:05:02.560Z,6.83
2018-03-21T16:07:36.597Z,5.90
2018-03-21T16:10:10.021Z,5.27
2018-03-21T16:12:42.777Z,5.43
2018-03-21T16:15:15.674Z,4.80
2018-03-21T16:17:49.387Z,4.87
2018-03-21T16:20:22.417Z,4.20
2018-03-21T16:22:55.338Z,3.83
2018-03-21T16:25:27.817Z,5.50
2018-03-21T16:28:01.069Z,4.37
2018-03-21T16:30:34.399Z,4.87
2018-03-21T16:33:06.890Z,4.27
2018-03-21T16:35:40.269Z,5.70
2018-03-21T16:38:13.629Z,4.87
2018-03-21T16:40:46.058Z,5.90
2018-03-21T16:43:18.469Z,5.60
2018-03-21T16:45:51.370Z,4.00
2018-03-21T16:48:24.346Z,4.97
2018-03-21T16:50:57.058Z,5.43
2018-03-21T16:53:30.991Z,4.43
2018-03-21T16:56:03.747Z,4.70
2018-03-21T16:58:37.832Z,5.30
2018-03-21T17:01:10.433Z,4.40
2018-03-21T17:03:42.946Z,4.73
2018-03-21T17:06:15.574Z,4.43
2018-03-21T17:08:48.955Z,4.03
2018-03-21T17:11:22.498Z,3.63
2018-03-21T17:13:56.515Z,4.10
2018-03-21T17:16:29.056Z,4.43
2018-03-21T17:19:01.547Z,4.17
2018-03-21T17:21:34.836Z,4.40
2018-03-21T17:24:07.420Z,4.90
2018-03-21T17:26:40.002Z,5.40
2018-03-21T17:29:13.182Z,4.03
2018-03-21T17:31:45.881Z,4.13
2018-03-21T17:34:19.032Z,3.90
2018-03-21T17:36:52.655Z,4.53
2018-03-21T17:39:26.831Z,4.57
2018-03-21T17:41:59.685Z,4.60
2018-03-21T17:44:33.731Z,4.60
2018-03-21T17:47:06.521Z,3.80
2018-03-21T17:49:38.966Z,4.13
2018-03-21T17:52:12.204Z,4.10
2018-03-21T17:54:45.631Z,3.83
2018-03-21T17:57:18.934Z,3.77
2018-03-21T17:59:52.162Z,4.33
2018-03-21T18:02:25.611Z,3.93
2018-03-21T18:04:58.866Z,4.70
2018-03-21T18:07:32.266Z,4.00
2018-03-21T18:10:05.578Z,4.33
2018-03-21T18:12:38.472Z,3.97
2018-03-21T18:15:11.780Z,5.73
2018-03-21T18:17:45.130Z,5.07
2018-03-21T18:20:18.237Z,4.50
2018-03-21T18:22:50.951Z,4.33
2018-03-21T18:25:24.088Z,5.10
2018-03-21T18:27:57.214Z,4.20
2018-03-21T18:30:29.938Z,4.77
2018-03-21T18:33:03.410Z,5.17
2018-03-21T18:35:36.708Z,5.67
2018-03-21T18:38:10.561Z,5.30
2018-03-21T18:40:44.447Z,4.43
2018-03-21T18:43:17.005Z,5.43
2018-03-21T18:45:50.366Z,6.37
2018-03-21T18:48:22.836Z,5.50
2018-03-21T18:50:56.861Z,6.10
2018-03-21T18:53:29.652Z,6.47
2018-03-21T18:56:02.849Z,5.83
2018-03-21T18:58:35.381Z,6.70
2018-03-21T19:01:09.715Z,6.47
2018-03-21T19:03:43.842Z,6.97
2018-03-21T19:06:17.013Z,7.83
2018-03-21T19:08:50.742Z,6.60
2018-03-21T19:11:23.972Z,6.87
2018-03-21T19:13:56.378Z,7.33
2018-03-21T19:16:30.495Z,7.57
2018-03-21T19:19:03.179Z,7.30
2018-03-21T19:21:35.656Z,7.20
2018-03-21T19:24:09.972Z,6.17
2018-03-21T19:26:43.321Z,7.07
2018-03-21T19:29:16.041Z,6.17
2018-03-21T19:31:50.055Z,7.33
2018-03-21T19:34:23.106Z,6.10
2018-03-21T19:36:56.149Z,6.63
2018-03-21T19:39:28.516Z,6.90
2018-03-21T19:42:00.949Z,6.97
2018-03-21T19:44:34.260Z,5.60
2018-03-21T19:47:07.844Z,5.87
2018-03-21T19:49:41.144Z,5.40
2018-03-21T19:52:15.195Z,6.00
2018-03-21T19:54:48.650Z,6.20
2018-03-21T19:57:21.305Z,7.10
2018-03-21T19:59:54.778Z,6.30
2018-03-21T20:02:28.180Z,5.67
2018-03-21T20:05:01.559Z,5.77
2018-03-21T20:07:34.049Z,6.17
2018-03-21T20:10:07.680Z,5.20
2018-03-21T20:12:41.076Z,5.27
2018-03-21T20:15:14.485Z,5.80
2018-03-21T20:17:47.715Z,5.90
2018-03-21T20:20:21.248Z,5.67
2018-03-21T20:22:53.690Z,5.57
2018-03-21T20:25:26.364Z,6.07
2018-03-21T20:28:00.368Z,5.80
2018-03-21T20:30:33.206Z,5.83
2018-03-21T20:33:06.773Z,5.47
2018-03-21T20:35:40.718Z,6.00
2018-03-21T20:38:13.614Z,6.60
2018-03-21T20:40:46.752Z,5.47
2018-03-21T20:43:20.128Z,6.73
2018-03-21T20:45:53.320Z,5.93
2018-03-21T20:48:26.619Z,6.53
2018-03-21T20:50:59.799Z,6.07
2018-03-21T20:53:33.076Z,6.93
2018-03-21T20:56:06.432Z,7.50
2018-03-21T20:58:39.693Z,6.97
2018-03-21T21:01:13.089Z,7.30
2018-03-21T21:03:46.494Z,7.20
2018-03-21T21:06:19.851Z,7.63
2018-03-21T21:08:53.295Z,5.77
2018-03-21T21:11:26.665Z,6.73
2018-03-21T21:13:59.964Z,6.53
2018-03-21T21:16:33.377Z,6.57
2018-03-21T21:19:05.760Z,7.13
2018-03-21T21:21:39.099Z,7.13
2018-03-21T21:24:11.543Z,6.67
2018-03-21T21:26:44.708Z,6.00
2018-03-21T21:29:17.358Z,7.20
2018-03-21T21:31:49.937Z,7.73
2018-03-21T21:34:22.554Z,6.83
2018-03-21T21:36:54.980Z,6.90
2018-03-21T21:39:28.093Z,7.60
2018-03-21T21:42:00.889Z,7.30
2018-03-21T21:44:41.216Z,8.90
2018-03-21T21:47:14.468Z,8.30
2018-03-21T21:49:47.289Z,6.30
2018-03-21T21:52:19.795Z,7.20
2018-03-21T21:54:53.194Z,7.57
2018-03-21T21:57:26.540Z,6.60
2018-03-21T21:59:59.724Z,6.57
2018-03-21T22:02:32.244Z,8.40
2018-03-21T22:05:05.628Z,6.97
2018-03-21T22:07:38.867Z,6.30
2018-03-21T22:10:11.482Z,7.33
2018-03-21T22:12:44.953Z,7.37
2018-03-21T22:15:18.195Z,7.50
2018-03-21T22:17:52.462Z,7.80
2018-03-21T22:20:25.715Z,9.87
2018-03-21T22:22:58.401Z,8.90
2018-03-21T22:25:31.804Z,9.77
2018-03-21T22:28:04.354Z,8.40
2018-03-21T22:30:36.793Z,8.67
2018-03-21T22:33:10.223Z,7.70
2018-03-21T22:35:42.686Z,9.37
2018-03-21T22:38:15.332Z,7.53
2018-03-21T22:40:48.367Z,8.33
2018-03-21T22:43:20.993Z,7.00
2018-03-21T22:45:54.200Z,7.60
2018-03-21T22:48:28.298Z,8.70
2018-03-21T22:51:00.972Z,8.23
2018-03-21T22:53:34.285Z,7.57
2018-03-21T22:56:07.430Z,8.27
2018-03-21T22:58:40.208Z,7.87
2018-03-21T23:01:12.668Z,8.40
2018-03-21T23:03:45.959Z,8.60
2018-03-21T23:06:18.735Z,7.27
2018-03-21T23:08:51.426Z,10.00
2018-03-21T23:11:24.673Z,8.63
2018-03-21T23:13:57.954Z,7.90
2018-03-21T23:16:31.347Z,8.00
2018-03-21T23:19:04.639Z,10.00
2018-03-21T23:21:38.000Z,8.97
2018-03-21T23:24:11.398Z,9.40
2018-03-21T23:26:44.898Z,10.97
2018-03-21T23:29:17.361Z,9.73
2018-03-21T23:31:50.816Z,9.80
2018-03-21T23:34:24.305Z,9.63
2018-03-21T23:36:57.646Z,7.90
2018-03-21T23:39:30.068Z,8.17
2018-03-21T23:42:03.443Z,8.83
2018-03-21T23:44:36.062Z,7.77
2018-03-21T23:47:09.317Z,8.80
2018-03-21T23:49:41.914Z,8.17
2018-03-21T23:52:15.158Z,8.43
2018-03-21T23:54:48.657Z,8.67
2018-03-21T23:57:22.647Z,8.50
2018-03-21T23:59:55.393Z,8.83
